createdAt,value
2018-02-20T14:42:54.923Z,30.70
2018-02-20T14:45:20.986Z,32.17
2018-02-20T14:47:47.015Z,31.07
2018-02-20T14:50:13.516Z,31.00
2018-02-20T14:52:39.631Z,31.20
2018-02-20T14:55:05.711Z,31.13
2018-02-20T14:57:32.195Z,30.97
2018-02-20T14:59:58.199Z,30.63
2018-02-20T15:02:24.226Z,31.00
2018-02-20T15:04:50.314Z,32.67
2018-02-20T15:07:17.053Z,29.97
2018-02-20T15:09:43.051Z,30.97
2018-02-20T15:12:09.080Z,29.87
2018-02-20T15:14:35.076Z,31.83
2018-02-20T15:17:01.831Z,29.47
2018-02-20T15:19:27.835Z,29.87
2018-02-20T15:21:53.867Z,30.10
2018-02-20T15:24:20.302Z,30.53
2018-02-20T15:26:46.327Z,30.03
2018-02-20T15:29:12.387Z,31.07
2018-02-20T15:31:38.443Z,31.43
2018-02-20T15:34:04.477Z,29.93
2018-02-20T15:36:31.219Z,30.10
2018-02-20T15:38:57.663Z,30.23
2018-02-20T15:41:24.131Z,30.57
2018-02-20T15:43:50.207Z,31.40
2018-02-20T15:46:16.242Z,30.53
2018-02-20T15:48:43.399Z,29.63
2018-02-20T15:51:09.623Z,31.37
2018-02-20T15:53:35.632Z,29.93
2018-02-20T15:56:01.668Z,28.37
2018-02-20T15:58:27.655Z,28.77
2018-02-20T16:00:53.744Z,29.60
2018-02-20T16:03:19.745Z,30.30
2018-02-20T16:05:45.819Z,29.73
2018-02-20T16:08:11.819Z,28.70
2018-02-20T16:10:38.220Z,32.05
2018-02-20T16:13:04.227Z,29.07
2018-02-20T16:15:30.290Z,26.87
2018-02-20T16:17:56.323Z,25.00
2018-02-20T16:20:22.322Z,24.20
2018-02-20T16:22:48.383Z,26.20
2018-02-20T16:25:15.102Z,24.97
2018-02-20T16:27:41.191Z,26.00
2018-02-20T16:30:07.251Z,25.27
2018-02-20T16:32:33.275Z,26.00
2018-02-20T16:34:59.334Z,25.60
2018-02-20T16:37:25.368Z,24.53
2018-02-20T16:39:51.375Z,25.83
2018-02-20T16:42:17.544Z,25.53
2018-02-20T16:44:43.551Z,24.87
2018-02-20T16:47:09.565Z,26.57
2018-02-20T16:49:35.652Z,26.63
2018-02-20T16:52:01.637Z,26.27
2018-02-20T16:54:27.817Z,26.50
2018-02-20T16:56:53.835Z,26.73
2018-02-20T16:59:19.830Z,26.63
2018-02-20T17:01:45.936Z,25.97
2018-02-20T17:04:12.047Z,27.60
2018-02-20T17:06:38.127Z,25.53
2018-02-20T17:09:04.150Z,26.43
2018-02-20T17:11:30.147Z,26.30
2018-02-20T17:13:56.167Z,25.47
2018-02-20T17:16:22.179Z,26.20
2018-02-20T17:18:48.243Z,24.83
2018-02-20T17:21:14.291Z,25.80
2018-02-20T17:23:40.287Z,25.40
2018-02-20T17:26:06.303Z,27.00
2018-02-20T17:28:32.319Z,27.57
2018-02-20T17:30:58.370Z,25.87
2018-02-20T17:33:24.372Z,26.77
2018-02-20T17:35:50.407Z,27.73
2018-02-20T17:38:16.591Z,25.87
2018-02-20T17:40:42.603Z,28.20
2018-02-20T17:43:08.648Z,25.90
2018-02-20T17:45:35.451Z,27.40
2018-02-20T17:48:01.451Z,27.40
2018-02-20T17:50:27.564Z,27.73
2018-02-20T17:52:53.579Z,28.37
2018-02-20T17:55:19.616Z,26.90
2018-02-20T17:57:45.887Z,28.53
2018-02-20T18:00:11.875Z,25.93
2018-02-20T18:02:38.156Z,26.53
2018-02-20T18:05:04.183Z,30.00
2018-02-20T18:07:30.343Z,29.60
2018-02-20T18:09:56.422Z,29.33
2018-02-20T18:12:22.435Z,29.60
2018-02-20T18:14:48.454Z,29.70
2018-02-20T18:17:14.471Z,27.97
2018-02-20T18:19:40.549Z,29.73
2018-02-20T18:22:06.572Z,31.03
2018-02-20T18:24:32.611Z,31.77
2018-02-20T18:26:58.623Z,30.70
2018-02-20T18:29:24.687Z,31.73
2018-02-20T18:31:50.766Z,29.50
2018-02-20T18:34:16.823Z,30.60
2018-02-20T18:36:42.882Z,31.77
2018-02-20T18:39:08.974Z,31.37
2018-02-20T18:41:35.750Z,31.70
2018-02-20T18:44:01.752Z,33.60
2018-02-20T18:46:27.796Z,32.93
2018-02-20T18:48:53.854Z,32.77
2018-02-20T18:51:19.866Z,32.43
2018-02-20T18:53:45.878Z,33.07
2018-02-20T18:56:12.046Z,32.93
2018-02-20T18:58:38.035Z,33.20
2018-02-20T19:01:04.075Z,33.97
2018-02-20T19:03:30.074Z,34.33
2018-02-20T19:05:56.166Z,35.67
2018-02-20T19:08:22.164Z,35.63
2018-02-20T19:10:48.155Z,35.13
2018-02-20T19:13:14.931Z,34.47
2018-02-20T19:15:41.006Z,36.47
2018-02-20T19:18:07.067Z,36.67
2018-02-20T19:20:33.072Z,36.87
2018-02-20T19:22:59.826Z,36.93
2018-02-20T19:25:25.934Z,35.53
2018-02-20T19:27:52.723Z,34.87
2018-02-20T19:30:18.759Z,38.60
2018-02-20T19:32:44.752Z,38.00
2018-02-20T19:35:10.960Z,37.50
2018-02-20T19:37:36.991Z,37.10
2018-02-20T19:40:03.044Z,39.30
2018-02-20T19:42:29.099Z,37.27
2018-02-20T19:44:55.158Z,38.57
2018-02-20T19:47:21.139Z,38.50
2018-02-20T19:49:47.167Z,39.27
2018-02-20T19:52:13.207Z,39.67
2018-02-20T19:54:39.975Z,38.50
2018-02-20T19:57:05.959Z,36.33
2018-02-20T19:59:31.986Z,38.60
2018-02-20T20:01:58.019Z,36.17
2018-02-20T20:04:24.015Z,39.93
2018-02-20T20:06:50.039Z,38.07
2018-02-20T20:09:16.138Z,37.77
2018-02-20T20:11:42.187Z,35.50
2018-02-20T20:14:08.220Z,38.10
2018-02-20T20:16:34.223Z,38.87
2018-02-20T20:19:00.252Z,39.13
2018-02-20T20:21:26.276Z,36.57
2018-02-20T20:23:52.290Z,36.90
2018-02-20T20:26:18.312Z,38.20
2018-02-20T20:28:44.334Z,38.60
2018-02-20T20:31:10.355Z,36.83
2018-02-20T20:33:36.395Z,38.03
2018-02-20T20:36:02.499Z,40.97
2018-02-20T20:38:28.507Z,37.57
2018-02-20T20:40:54.531Z,39.67
2018-02-20T20:43:20.562Z,41.60
2018-02-20T20:45:46.995Z,38.47
2018-02-20T20:48:12.990Z,40.83
2018-02-20T20:50:39.008Z,41.43
2018-02-20T20:53:05.847Z,39.77
2018-02-20T20:55:31.839Z,40.17
2018-02-20T20:57:58.123Z,41.47
2018-02-20T21:00:24.159Z,37.90
2018-02-20T21:02:50.256Z,40.80
2018-02-20T21:05:16.271Z,42.80
2018-02-20T21:07:42.277Z,43.73
2018-02-20T21:10:08.282Z,43.10
2018-02-20T21:12:34.314Z,42.83
2018-02-20T21:15:00.322Z,41.07
2018-02-20T21:17:26.335Z,41.37
2018-02-20T21:19:52.330Z,40.07
2018-02-20T21:22:18.323Z,41.90
2018-02-20T21:24:44.356Z,42.57
2018-02-20T21:27:10.859Z,39.80
2018-02-20T21:29:36.882Z,45.57
2018-02-20T21:32:02.891Z,44.17
2018-02-20T21:34:28.904Z,43.00
2018-02-20T21:36:54.907Z,46.50
2018-02-20T21:39:20.956Z,45.00
2018-02-20T21:41:47.039Z,44.87
2018-02-20T21:44:13.051Z,45.20
2018-02-20T21:46:39.063Z,43.57
2018-02-20T21:49:05.131Z,42.47
2018-02-20T21:51:31.783Z,46.03
2018-02-20T21:53:57.827Z,46.20
2018-02-20T21:56:23.854Z,45.90
2018-02-20T21:58:49.847Z,46.33
2018-02-20T22:01:15.866Z,46.00
2018-02-20T22:03:41.916Z,47.17
2018-02-20T22:06:07.951Z,46.53
2018-02-20T22:08:33.959Z,45.73
2018-02-20T22:10:59.975Z,45.97
2018-02-20T22:13:25.987Z,47.53
2018-02-20T22:15:52.043Z,45.50
2018-02-20T22:18:18.095Z,47.87
2018-02-20T22:20:44.127Z,48.93
2018-02-20T22:23:10.899Z,47.43
2018-02-20T22:25:36.914Z,48.17
2018-02-20T22:28:02.940Z,50.87
2018-02-20T22:30:28.987Z,48.40
2018-02-20T22:32:54.999Z,51.20
2018-02-20T22:35:21.007Z,49.40
2018-02-20T22:37:47.080Z,50.10
2018-02-20T22:40:13.110Z,47.17
2018-02-20T22:42:39.179Z,47.27
2018-02-20T22:45:05.264Z,46.63
2018-02-20T22:47:31.255Z,48.43
2018-02-20T22:49:57.419Z,51.20
2018-02-20T22:52:23.463Z,49.23
2018-02-20T22:54:50.347Z,49.97
2018-02-20T22:57:16.338Z,49.27
2018-02-20T22:59:43.068Z,49.23
2018-02-20T23:02:09.111Z,49.00
2018-02-20T23:04:35.627Z,47.73
2018-02-20T23:07:01.691Z,50.03
2018-02-20T23:09:27.706Z,51.50
2018-02-20T23:11:54.018Z,48.80
2018-02-20T23:14:20.028Z,51.00
2018-02-20T23:16:46.067Z,50.00
2018-02-20T23:19:12.115Z,50.27
2018-02-20T23:21:38.114Z,50.30
2018-02-20T23:24:04.141Z,52.70
2018-02-20T23:26:30.203Z,48.60
2018-02-20T23:28:56.287Z,53.70
2018-02-20T23:31:22.622Z,53.17
2018-02-20T23:33:48.636Z,53.60
2018-02-20T23:36:14.662Z,51.80
2018-02-20T23:38:40.699Z,53.90
2018-02-20T23:41:06.742Z,51.77
2018-02-20T23:43:33.356Z,53.50
2018-02-20T23:45:59.400Z,49.93
2018-02-20T23:48:25.399Z,53.13
2018-02-20T23:50:58.179Z,53.23
2018-02-20T23:53:24.195Z,55.20
2018-02-20T23:55:50.279Z,53.20
2018-02-20T23:58:16.343Z,53.93
